Time;durP1;ratioP1;P1;durP2;ratioP2;P2;SDS_P1;SDS_P2;PMS_P1;PMS_P2;Temp;Humidity;BMP_temperature;BMP_pressure;BME280_temperature;BME280_humidity;BME280_pressure;Samples;Min_cycle;Max_cycle;Signal;HPM_P1;HPM_P2
2021/05/16 00:00:17;;;;;;;2.00;1.60;;;13.50;99.90;;;;;;5095539;28;20909;-67
2021/05/16 00:02:44;;;;;;;2.10;1.80;;;13.50;99.90;;;;;;5095809;28;20458;-67
2021/05/16 00:05:14;;;;;;;2.60;2.20;;;13.50;99.90;;;;;;5095983;28;20468;-67
2021/05/16 00:07:41;;;;;;;1.83;1.60;;;13.40;99.90;;;;;;5095291;28;20442;-67
2021/05/16 00:10:09;;;;;;;1.57;1.47;;;13.40;99.90;;;;;;5095570;28;20454;-67
2021/05/16 00:12:36;;;;;;;1.50;1.40;;;13.40;99.90;;;;;;5095643;28;20585;-67
2021/05/16 00:15:07;;;;;;;2.80;1.50;;;13.30;99.90;;;;;;5095484;28;20458;-67
2021/05/16 00:17:34;;;;;;;1.83;1.60;;;13.40;99.90;;;;;;5095296;28;20442;-67
2021/05/16 00:20:01;;;;;;;2.50;2.30;;;13.40;99.90;;;;;;5095563;28;20457;-67
2021/05/16 00:22:27;;;;;;;2.00;1.90;;;13.30;99.90;;;;;;5095381;28;20453;-67
2021/05/16 00:24:54;;;;;;;2.00;1.80;;;13.30;99.90;;;;;;5095684;28;20457;-67
2021/05/16 00:27:20;;;;;;;2.73;2.00;;;13.30;99.90;;;;;;5095195;28;20464;-67
2021/05/16 00:29:46;;;;;;;1.70;1.60;;;13.30;99.90;;;;;;5095282;28;20460;-67
2021/05/16 00:32:12;;;;;;;2.07;1.80;;;13.30;99.90;;;;;;5095022;28;20827;-67
2021/05/16 00:34:39;;;;;;;2.50;1.50;;;13.30;99.90;;;;;;5095265;28;20481;-67
2021/05/16 00:37:06;;;;;;;1.77;1.60;;;13.30;99.90;;;;;;5095020;28;20485;-67
2021/05/16 00:39:33;;;;;;;3.20;2.00;;;13.30;99.90;;;;;;5094921;28;20453;-67
2021/05/16 00:41:59;;;;;;;2.53;1.80;;;13.30;99.90;;;;;;5096900;28;20807;-67
2021/05/16 00:44:25;;;;;;;1.70;1.60;;;13.20;99.90;;;;;;5098764;28;20453;-67
2021/05/16 00:46:51;;;;;;;2.07;1.60;;;13.20;99.90;;;;;;5098931;28;20469;-67
2021/05/16 00:49:18;;;;;;;2.87;1.70;;;13.20;99.90;;;;;;5099167;28;20483;-67
2021/05/16 00:51:44;;;;;;;2.10;1.90;;;13.10;99.90;;;;;;5098752;28;20461;-67
2021/05/16 00:54:11;;;;;;;2.07;1.87;;;13.10;99.90;;;;;;5098684;28;20473;-67
2021/05/16 00:56:38;;;;;;;2.00;1.80;;;13.00;99.90;;;;;;5099106;28;20456;-67
2021/05/16 00:59:05;;;;;;;2.10;1.80;;;13.00;99.90;;;;;;5099257;28;20456;-67
2021/05/16 01:01:31;;;;;;;2.47;1.87;;;12.90;99.90;;;;;;5098527;28;20457;-67
2021/05/16 01:03:57;;;;;;;2.70;1.90;;;12.80;99.90;;;;;;5099260;28;20450;-67
2021/05/16 01:06:23;;;;;;;1.63;1.53;;;12.80;99.90;;;;;;5100352;28;20453;-68
2021/05/16 01:08:50;;;;;;;1.63;1.50;;;12.70;99.90;;;;;;5101308;28;20452;-67
2021/05/16 01:11:18;;;;;;;2.13;1.67;;;12.70;99.90;;;;;;5098758;28;20461;-67
2021/05/16 01:13:48;;;;;;;1.90;1.70;;;12.70;99.90;;;;;;5098427;28;20578;-67
2021/05/16 01:16:15;;;;;;;2.70;1.77;;;12.70;99.90;;;;;;5099074;28;20829;-67
2021/05/16 01:18:41;;;;;;;1.90;1.70;;;12.70;99.90;;;;;;5098413;28;20464;-67
2021/05/16 01:21:08;;;;;;;1.53;1.43;;;12.70;99.90;;;;;;5098281;28;20453;-67
2021/05/16 01:23:45;;;;;;;2.00;1.90;;;12.70;99.90;;;;;;5098320;28;20526;-67
2021/05/16 01:26:13;;;;;;;1.63;1.53;;;12.70;99.90;;;;;;5098214;28;20535;-67
2021/05/16 01:28:42;;;;;;;1.90;1.60;;;12.70;99.90;;;;;;5098153;28;20480;-67
2021/05/16 01:31:09;;;;;;;2.57;1.90;;;12.60;99.90;;;;;;5097833;28;20521;-67
2021/05/16 01:33:36;;;;;;;2.00;1.80;;;12.60;99.90;;;;;;5098174;28;20468;-67
2021/05/16 01:36:05;;;;;;;1.57;1.40;;;12.60;99.90;;;;;;5097992;28;20824;-67
2021/05/16 01:38:31;;;;;;;2.03;1.60;;;12.60;99.90;;;;;;5098168;28;20494;-67
2021/05/16 01:40:58;;;;;;;1.50;1.40;;;12.60;99.90;;;;;;5098770;28;20479;-67
2021/05/16 01:43:24;;;;;;;1.77;1.40;;;12.50;99.90;;;;;;5097756;28;20987;-67
2021/05/16 01:45:51;;;;;;;1.87;1.60;;;12.50;99.90;;;;;;5098079;28;20785;-67
2021/05/16 01:48:17;;;;;;;2.13;1.93;;;12.50;99.90;;;;;;5098066;28;20464;-67
2021/05/16 01:50:43;;;;;;;2.03;1.50;;;12.40;99.90;;;;;;5097748;28;20454;-67
2021/05/16 01:53:12;;;;;;;5.47;1.97;;;12.40;99.90;;;;;;5097627;28;20508;-67
2021/05/16 01:55:39;;;;;;;1.90;1.60;;;12.30;99.90;;;;;;5097743;28;20457;-67
2021/05/16 01:58:06;;;;;;;1.80;1.50;;;12.30;99.90;;;;;;5097933;28;20453;-67
2021/05/16 02:00:34;;;;;;;1.53;1.43;;;12.30;99.90;;;;;;5097813;28;20456;-67
2021/05/16 02:03:00;;;;;;;2.17;1.97;;;12.30;99.90;;;;;;5097760;28;20449;-67
2021/05/16 02:05:27;;;;;;;3.00;1.80;;;12.30;99.90;;;;;;5097546;28;20771;-67
2021/05/16 02:07:53;;;;;;;2.47;1.53;;;12.30;99.90;;;;;;5097680;28;20457;-67
2021/05/16 02:10:21;;;;;;;2.67;1.60;;;12.20;99.90;;;;;;5097613;28;20468;-67
2021/05/16 02:12:48;;;;;;;2.70;1.43;;;12.20;99.90;;;;;;5097417;28;20477;-67
2021/05/16 02:15:18;;;;;;;1.90;1.43;;;12.20;99.90;;;;;;5097418;28;20449;-67
2021/05/16 02:17:44;;;;;;;2.43;1.57;;;12.20;99.90;;;;;;5097446;28;20438;-67
2021/05/16 02:20:14;;;;;;;2.10;1.90;;;12.20;99.90;;;;;;5097192;28;20461;-67
2021/05/16 02:22:42;;;;;;;2.20;1.80;;;12.20;99.90;;;;;;5097336;28;20809;-67
2021/05/16 02:25:09;;;;;;;2.13;1.70;;;12.20;99.90;;;;;;5097142;28;20750;-68
2021/05/16 02:27:36;;;;;;;2.00;1.73;;;12.10;99.90;;;;;;5097304;28;20468;-67
2021/05/16 02:30:03;;;;;;;3.17;2.07;;;12.10;99.90;;;;;;5096838;28;20548;-67
2021/05/16 02:32:30;;;;;;;2.27;1.90;;;12.10;99.90;;;;;;5096905;28;20819;-67
2021/05/16 02:34:57;;;;;;;3.10;2.00;;;12.10;99.90;;;;;;5096736;28;20453;-67
2021/05/16 02:37:23;;;;;;;2.30;1.70;;;12.00;99.90;;;;;;5096775;28;20458;-67
2021/05/16 02:39:49;;;;;;;2.20;2.00;;;12.00;99.90;;;;;;5096989;28;20462;-67
2021/05/16 02:42:15;;;;;;;2.10;1.80;;;11.90;99.90;;;;;;5096554;28;20453;-67
2021/05/16 02:44:42;;;;;;;2.13;1.93;;;11.90;99.90;;;;;;5096939;28;20454;-67
2021/05/16 02:47:08;;;;;;;1.97;1.87;;;11.90;99.90;;;;;;5096767;28;20793;-67
2021/05/16 02:49:35;;;;;;;3.10;2.00;;;11.90;99.90;;;;;;5096980;28;20457;-67
2021/05/16 02:52:01;;;;;;;3.23;2.30;;;11.80;99.90;;;;;;5096772;28;20453;-67
2021/05/16 02:54:27;;;;;;;2.73;2.20;;;11.80;99.90;;;;;;5096596;28;20477;-67
2021/05/16 02:56:54;;;;;;;2.37;2.17;;;11.80;99.90;;;;;;5096484;28;20457;-67
2021/05/16 02:59:21;;;;;;;2.57;2.37;;;11.80;99.90;;;;;;5096484;28;20464;-67
2021/05/16 03:01:47;;;;;;;2.37;1.87;;;11.80;99.90;;;;;;5096313;28;20457;-67
2021/05/16 03:04:14;;;;;;;4.10;2.60;;;11.80;99.90;;;;;;5096036;28;20449;-67
2021/05/16 03:06:41;;;;;;;2.77;2.13;;;11.80;99.90;;;;;;5096547;28;20457;-67
2021/05/16 03:09:07;;;;;;;2.70;2.50;;;11.70;99.90;;;;;;5096361;28;20454;-67
2021/05/16 03:11:36;;;;;;;2.37;2.13;;;11.70;99.90;;;;;;5096341;28;20457;-67
2021/05/16 03:14:02;;;;;;;2.00;1.80;;;11.60;99.90;;;;;;5096009;28;20481;-67
2021/05/16 03:16:28;;;;;;;3.53;2.40;;;11.60;99.90;;;;;;5096253;28;20480;-67
2021/05/16 03:18:54;;;;;;;2.27;2.07;;;11.50;99.90;;;;;;5096202;28;20484;-67
2021/05/16 03:21:21;;;;;;;2.20;2.00;;;11.50;99.90;;;;;;5095970;28;20949;-67
2021/05/16 03:23:48;;;;;;;4.90;2.10;;;11.50;99.90;;;;;;5096298;28;20454;-67
2021/05/16 03:26:14;;;;;;;2.50;1.77;;;11.50;99.90;;;;;;5096034;28;20453;-67
2021/05/16 03:28:40;;;;;;;2.97;2.00;;;11.50;99.90;;;;;;5095777;28;20457;-67
2021/05/16 03:31:08;;;;;;;4.53;1.90;;;11.40;99.90;;;;;;5095773;28;20485;-68
2021/05/16 03:33:35;;;;;;;3.17;2.70;;;11.50;99.90;;;;;;5095985;28;20556;-67
2021/05/16 03:36:01;;;;;;;2.50;2.30;;;11.40;99.90;;;;;;5095710;28;20921;-67
2021/05/16 03:38:27;;;;;;;2.70;2.20;;;11.40;99.90;;;;;;5095378;28;20514;-67
2021/05/16 03:40:54;;;;;;;2.70;2.20;;;11.40;99.90;;;;;;5095748;28;20458;-67
2021/05/16 03:43:22;;;;;;;2.30;1.93;;;11.50;99.90;;;;;;5095654;28;20460;-67
2021/05/16 03:45:48;;;;;;;1.80;1.70;;;11.50;99.90;;;;;;5095612;28;20526;-67
2021/05/16 03:48:15;;;;;;;2.10;1.90;;;11.50;99.90;;;;;;5095721;28;20491;-67
2021/05/16 03:50:41;;;;;;;2.97;2.07;;;11.50;99.90;;;;;;5095315;28;20917;-67
2021/05/16 03:53:07;;;;;;;2.20;1.97;;;11.60;99.90;;;;;;5095227;28;20484;-67
2021/05/16 03:55:36;;;;;;;1.87;1.70;;;11.60;99.90;;;;;;5094946;28;20937;-67
2021/05/16 03:58:04;;;;;;;2.10;1.83;;;11.60;99.90;;;;;;5095577;28;20791;-67
2021/05/16 04:00:30;;;;;;;5.20;1.90;;;11.60;99.90;;;;;;5095403;28;20465;-67
2021/05/16 04:02:56;;;;;;;2.10;1.90;;;11.70;99.90;;;;;;5095466;28;20465;-67
2021/05/16 04:05:22;;;;;;;2.10;1.90;;;11.80;99.90;;;;;;5095334;28;20457;-67
2021/05/16 04:07:49;;;;;;;3.10;2.10;;;11.80;99.90;;;;;;5095313;28;20468;-67
2021/05/16 04:10:16;;;;;;;2.50;2.00;;;11.80;99.90;;;;;;5095719;28;20468;-67
2021/05/16 04:12:42;;;;;;;2.20;2.10;;;11.80;99.90;;;;;;5095682;28;20464;-67
2021/05/16 04:15:09;;;;;;;3.23;2.03;;;11.80;99.90;;;;;;5094899;28;20449;-67
2021/05/16 04:17:36;;;;;;;2.10;1.90;;;11.80;99.90;;;;;;5094569;28;20457;-67
2021/05/16 04:20:03;;;;;;;2.30;2.10;;;11.80;99.90;;;;;;5095269;28;20453;-67
2021/05/16 04:22:29;;;;;;;2.50;2.27;;;11.80;99.90;;;;;;5095229;28;20464;-67
2021/05/16 04:24:56;;;;;;;2.67;2.27;;;11.90;99.90;;;;;;5095156;28;20468;-67
2021/05/16 04:27:25;;;;;;;3.47;2.40;;;11.90;99.90;;;;;;5095120;28;20463;-67
2021/05/16 04:29:51;;;;;;;2.30;2.10;;;12.00;99.90;;;;;;5094814;28;20944;-67
2021/05/16 04:32:18;;;;;;;2.17;1.97;;;12.10;99.90;;;;;;5096020;28;20573;-67
2021/05/16 04:34:44;;;;;;;2.20;2.00;;;12.20;99.90;;;;;;5096509;28;20477;-67
2021/05/16 04:37:11;;;;;;;5.53;2.23;;;12.30;99.90;;;;;;5095806;28;20457;-67
2021/05/16 04:39:37;;;;;;;2.40;1.73;;;12.40;99.90;;;;;;5094719;28;20454;-67
2021/05/16 04:42:04;;;;;;;3.17;2.00;;;12.40;99.90;;;;;;5095221;28;20458;-67
2021/05/16 04:44:30;;;;;;;2.53;2.33;;;12.50;99.90;;;;;;5095085;28;20449;-67
2021/05/16 04:46:56;;;;;;;2.40;2.20;;;12.50;99.90;;;;;;5095259;28;20461;-67
2021/05/16 04:49:23;;;;;;;1.80;1.70;;;12.50;99.90;;;;;;5095075;28;20469;-67
2021/05/16 04:51:50;;;;;;;1.93;1.70;;;12.40;99.90;;;;;;5094979;28;20458;-67
2021/05/16 04:54:16;;;;;;;2.30;2.10;;;12.40;99.90;;;;;;5094928;28;20562;-67
2021/05/16 04:56:42;;;;;;;1.90;1.37;;;12.40;99.90;;;;;;5094665;28;20464;-67
2021/05/16 04:59:09;;;;;;;2.30;2.10;;;12.50;99.90;;;;;;5094906;28;20453;-67
2021/05/16 05:01:36;;;;;;;3.17;2.30;;;12.50;99.90;;;;;;5094731;28;20454;-66
2021/05/16 05:04:02;;;;;;;3.40;2.10;;;12.60;99.90;;;;;;5094566;28;20457;-67
2021/05/16 05:06:30;;;;;;;2.80;2.00;;;12.60;99.90;;;;;;5094878;28;20755;-68
2021/05/16 05:08:58;;;;;;;2.17;1.97;;;12.60;99.90;;;;;;5094735;28;20461;-67
2021/05/16 05:11:24;;;;;;;2.20;2.00;;;12.60;99.90;;;;;;5094354;28;20521;-67
2021/05/16 05:13:50;;;;;;;2.20;1.90;;;12.60;99.90;;;;;;5094859;28;20858;-67
2021/05/16 05:16:16;;;;;;;2.63;1.70;;;12.70;99.90;;;;;;5094827;28;20472;-67
2021/05/16 05:18:42;;;;;;;2.40;2.20;;;12.70;99.90;;;;;;5094822;28;20786;-67
2021/05/16 05:21:09;;;;;;;2.33;2.13;;;12.70;99.90;;;;;;5094991;28;20454;-67
2021/05/16 05:23:36;;;;;;;2.57;2.30;;;12.60;99.90;;;;;;5094816;28;20457;-67
2021/05/16 05:26:04;;;;;;;2.57;2.37;;;12.60;99.90;;;;;;5094238;28;20453;-67
2021/05/16 05:28:31;;;;;;;2.30;1.90;;;12.60;99.90;;;;;;5097241;28;20459;-67
2021/05/16 05:30:57;;;;;;;2.77;1.93;;;12.70;99.90;;;;;;5097881;28;20484;-67
2021/05/16 05:33:23;;;;;;;2.10;1.90;;;12.70;99.90;;;;;;5098009;28;20489;-66
2021/05/16 05:35:50;;;;;;;2.43;2.13;;;12.90;99.90;;;;;;5097975;28;20457;-66
2021/05/16 05:38:16;;;;;;;2.10;1.90;;;12.90;99.90;;;;;;5097720;28;20467;-67
2021/05/16 05:40:44;;;;;;;2.20;2.00;;;12.90;99.90;;;;;;5098134;28;20511;-67
2021/05/16 05:43:10;;;;;;;2.23;1.70;;;12.90;99.90;;;;;;5097678;28;20453;-67
2021/05/16 05:45:37;;;;;;;2.37;2.17;;;13.00;99.90;;;;;;5098340;28;20457;-67
2021/05/16 05:48:05;;;;;;;2.67;2.33;;;13.00;99.90;;;;;;5098846;28;20511;-67
2021/05/16 05:50:31;;;;;;;2.20;2.00;;;13.10;99.90;;;;;;5097540;28;20487;-67
2021/05/16 05:53:01;;;;;;;2.20;1.70;;;13.10;99.90;;;;;;5098029;28;20480;-67
2021/05/16 05:55:27;;;;;;;2.37;2.13;;;13.20;99.90;;;;;;5097896;28;20465;-67
2021/05/16 05:57:54;;;;;;;2.50;2.00;;;13.20;99.90;;;;;;5098008;28;20468;-66
2021/05/16 06:00:21;;;;;;;2.13;1.93;;;13.20;99.90;;;;;;5097991;28;20468;-67
2021/05/16 06:02:48;;;;;;;2.50;2.30;;;13.30;99.90;;;;;;5097903;28;20469;-67
2021/05/16 06:05:14;;;;;;;1.90;1.80;;;13.30;99.90;;;;;;5097584;28;20490;-67
2021/05/16 06:07:41;;;;;;;1.90;1.70;;;13.30;99.90;;;;;;5097290;28;20460;-66
2021/05/16 06:10:07;;;;;;;2.03;1.83;;;13.40;99.90;;;;;;5097684;28;20491;-67
2021/05/16 06:12:34;;;;;;;1.80;1.70;;;13.50;99.90;;;;;;5097638;28;20932;-67
2021/05/16 06:15:01;;;;;;;1.63;1.53;;;13.50;99.90;;;;;;5097755;28;20488;-66
2021/05/16 06:17:27;;;;;;;1.60;1.50;;;13.60;99.90;;;;;;5097621;28;20763;-66
2021/05/16 06:19:53;;;;;;;1.63;1.53;;;13.70;99.90;;;;;;5097664;28;20457;-66
2021/05/16 06:22:20;;;;;;;1.33;1.20;;;13.80;99.90;;;;;;5097508;28;20464;-66
2021/05/16 06:24:46;;;;;;;1.50;1.40;;;13.80;99.90;;;;;;5097063;28;20921;-68
2021/05/16 06:27:20;;;;;;;1.73;1.37;;;14.00;99.90;;;;;;5097642;28;20468;-66
2021/05/16 06:29:46;;;;;;;2.33;1.20;;;14.00;99.90;;;;;;5097472;28;20912;-67
2021/05/16 06:32:13;;;;;;;1.33;1.23;;;14.00;99.90;;;;;;5098538;28;20509;-67
2021/05/16 06:34:40;;;;;;;2.17;1.00;;;14.10;99.90;;;;;;5097380;28;20840;-67
2021/05/16 06:37:06;;;;;;;2.43;1.23;;;14.10;99.90;;;;;;5097080;28;20457;-67
2021/05/16 06:39:32;;;;;;;1.30;1.17;;;14.30;99.90;;;;;;5096244;28;20457;-67
2021/05/16 06:41:58;;;;;;;2.10;1.20;;;14.30;99.90;;;;;;5097572;28;20462;-67
2021/05/16 06:44:25;;;;;;;1.97;1.40;;;14.40;99.90;;;;;;5097127;28;20453;-67
2021/05/16 06:46:52;;;;;;;1.70;1.33;;;14.50;99.90;;;;;;5096971;28;20453;-67
2021/05/16 06:49:19;;;;;;;1.50;1.17;;;14.50;99.90;;;;;;5097094;28;20454;-68
2021/05/16 06:51:45;;;;;;;2.30;1.40;;;14.60;99.90;;;;;;5097221;28;20472;-68
2021/05/16 06:54:12;;;;;;;1.67;1.30;;;14.70;99.90;;;;;;5097231;28;20812;-68
2021/05/16 06:56:38;;;;;;;1.63;1.47;;;14.70;99.90;;;;;;5096900;28;20461;-66
2021/05/16 06:59:05;;;;;;;1.60;1.30;;;14.70;99.90;;;;;;5097223;28;20518;-68
2021/05/16 07:01:31;;;;;;;1.60;1.10;;;14.70;99.90;;;;;;5097285;28;20461;-67
2021/05/16 07:03:57;;;;;;;1.23;1.13;;;14.70;99.90;;;;;;5097070;28;20453;-66
2021/05/16 07:06:24;;;;;;;1.90;1.47;;;14.60;99.90;;;;;;5096037;28;20464;-66
2021/05/16 07:08:51;;;;;;;1.93;1.83;;;14.50;99.90;;;;;;5096375;28;20461;-68
2021/05/16 07:11:18;;;;;;;1.83;1.57;;;14.30;99.90;;;;;;5096216;28;20462;-67
2021/05/16 07:13:45;;;;;;;2.27;1.70;;;14.40;99.90;;;;;;5096363;28;20488;-66
2021/05/16 07:16:11;;;;;;;1.60;1.43;;;14.30;99.90;;;;;;5096570;28;20487;-68
2021/05/16 07:18:37;;;;;;;2.50;1.90;;;14.20;99.90;;;;;;5096272;28;20453;-68
2021/05/16 07:21:04;;;;;;;15.10;1.70;;;14.00;99.90;;;;;;5096350;28;20468;-68
2021/05/16 07:23:34;;;;;;;1.67;1.57;;;13.80;99.90;;;;;;5096228;28;20453;-66
2021/05/16 07:26:00;;;;;;;2.70;1.87;;;13.60;99.90;;;;;;5096329;28;20467;-67
2021/05/16 07:28:26;;;;;;;2.97;2.37;;;13.40;99.90;;;;;;5096234;28;20472;-67
2021/05/16 07:30:53;;;;;;;1.83;1.73;;;13.30;99.90;;;;;;5096862;28;20772;-67
2021/05/16 07:33:19;;;;;;;2.03;1.83;;;13.10;99.90;;;;;;5096102;28;20469;-67
2021/05/16 07:35:45;;;;;;;2.67;1.90;;;12.90;99.90;;;;;;5095869;28;20457;-67
2021/05/16 07:38:13;;;;;;;2.43;1.93;;;12.80;99.90;;;;;;5098870;28;20453;-67
2021/05/16 07:40:41;;;;;;;2.00;1.90;;;12.80;99.90;;;;;;5098739;28;20461;-67
2021/05/16 07:43:07;;;;;;;2.20;2.00;;;12.90;99.90;;;;;;5101276;28;20519;-67
2021/05/16 07:45:36;;;;;;;2.20;2.00;;;13.00;99.90;;;;;;5108586;28;20557;-67
2021/05/16 07:48:03;;;;;;;2.90;2.07;;;13.10;99.90;;;;;;5100043;28;20464;-67
2021/05/16 07:50:30;;;;;;;3.10;2.00;;;13.20;99.90;;;;;;5098400;28;20458;-67
2021/05/16 07:52:59;;;;;;;2.53;2.33;;;13.30;99.90;;;;;;5098145;28;20457;-67
2021/05/16 07:55:25;;;;;;;2.43;2.20;;;13.30;99.90;;;;;;5097960;28;20449;-67
2021/05/16 07:57:52;;;;;;;2.93;1.97;;;13.30;99.90;;;;;;5100930;28;20449;-67
2021/05/16 08:00:19;;;;;;;2.20;2.00;;;13.40;99.90;;;;;;5101606;28;20453;-67
2021/05/16 08:02:45;;;;;;;2.57;2.00;;;13.40;99.90;;;;;;5098716;28;20929;-67
2021/05/16 08:05:13;;;;;;;2.07;1.97;;;13.40;99.90;;;;;;5098575;28;20464;-67
2021/05/16 08:07:39;;;;;;;2.33;2.13;;;13.50;99.90;;;;;;5098270;28;20449;-67
2021/05/16 08:10:07;;;;;;;3.53;2.20;;;13.50;99.90;;;;;;5099299;28;20453;-67
2021/05/16 08:12:34;;;;;;;3.27;2.50;;;13.50;99.90;;;;;;5098842;28;20460;-67
2021/05/16 08:15:01;;;;;;;2.77;2.20;;;13.50;99.90;;;;;;5098393;28;20547;-68
2021/05/16 08:17:28;;;;;;;2.10;2.00;;;13.60;99.90;;;;;;5098418;28;20526;-68
2021/05/16 08:19:54;;;;;;;2.20;2.00;;;13.60;99.90;;;;;;5096144;28;20498;-67
2021/05/16 08:22:22;;;;;;;3.30;2.30;;;13.70;99.90;;;;;;5096491;28;20457;-67
2021/05/16 08:24:48;;;;;;;2.90;2.63;;;13.80;99.90;;;;;;5097930;28;20510;-70
2021/05/16 08:27:15;;;;;;;2.43;2.20;;;13.80;99.90;;;;;;5098154;28;20453;-67
2021/05/16 08:29:41;;;;;;;3.37;2.27;;;13.80;99.90;;;;;;5096959;28;20461;-67
2021/05/16 08:32:09;;;;;;;2.03;1.90;;;13.90;99.90;;;;;;5096821;28;20496;-67
2021/05/16 08:34:35;;;;;;;2.13;2.00;;;14.00;99.90;;;;;;5098390;28;20469;-67
2021/05/16 08:37:04;;;;;;;2.30;2.10;;;14.10;99.90;;;;;;5098341;28;20453;-66
2021/05/16 08:39:30;;;;;;;2.60;2.00;;;14.10;99.90;;;;;;5095729;28;20773;-67
2021/05/16 08:41:56;;;;;;;1.97;1.87;;;14.20;99.90;;;;;;5095660;28;20460;-67
2021/05/16 08:44:23;;;;;;;2.30;2.10;;;14.20;99.90;;;;;;5095669;28;20462;-67
2021/05/16 08:46:50;;;;;;;5.00;1.77;;;14.30;99.90;;;;;;5095205;28;20607;-66
2021/05/16 08:49:17;;;;;;;1.77;1.63;;;14.40;99.90;;;;;;5095414;28;20759;-67
2021/05/16 08:51:45;;;;;;;1.60;1.37;;;14.50;99.90;;;;;;5095082;28;20797;-68
2021/05/16 08:54:15;;;;;;;1.60;1.50;;;14.70;99.90;;;;;;5095499;28;20838;-68
2021/05/16 08:56:42;;;;;;;2.10;1.90;;;14.80;99.90;;;;;;5096047;28;20506;-68
2021/05/16 08:59:08;;;;;;;2.07;1.20;;;14.80;99.90;;;;;;5094942;28;20575;-67
2021/05/16 09:01:46;;;;;;;1.87;1.50;;;14.70;99.90;;;;;;5095017;28;20461;-67
2021/05/16 09:04:24;;;;;;;1.87;1.70;;;14.70;99.90;;;;;;5098849;28;20443;-68
2021/05/16 09:06:55;;;;;;;2.60;1.47;;;14.60;99.90;;;;;;5103364;28;20789;-67
2021/05/16 09:09:26;;;;;;;2.00;1.57;;;14.50;99.90;;;;;;5100582;28;20467;-68
2021/05/16 09:11:54;;;;;;;2.30;1.30;;;14.30;99.90;;;;;;5099204;28;20469;-68
2021/05/16 09:14:39;;;;;;;1.50;1.37;;;14.30;99.90;;;;;;5099544;28;20488;-68
2021/05/16 09:17:27;;;;;;;1.90;1.60;;;14.20;99.90;;;;;;5099542;28;20433;-67
2021/05/16 09:19:55;;;;;;;2.43;1.53;;;14.10;99.90;;;;;;5095150;28;20930;-67
2021/05/16 09:22:36;;;;;;;3.00;1.83;;;13.80;99.90;;;;;;5099436;28;20543;-67
2021/05/16 09:25:16;;;;;;;1.70;1.60;;;13.70;99.90;;;;;;5099344;28;20913;-67
2021/05/16 09:27:46;;;;;;;1.90;1.20;;;13.70;99.90;;;;;;5098565;28;20477;-68
2021/05/16 09:30:29;;;;;;;2.23;1.50;;;13.70;99.90;;;;;;5098601;28;20460;-68
2021/05/16 09:32:58;;;;;;;1.87;1.57;;;13.80;99.90;;;;;;5099014;28;20852;-67
2021/05/16 09:35:43;;;;;;;1.80;1.40;;;13.90;99.90;;;;;;5098460;28;20531;-67
2021/05/16 09:38:12;;;;;;;2.20;2.00;;;14.00;99.90;;;;;;5098426;28;20450;-66
2021/05/16 09:40:41;;;;;;;1.97;1.40;;;14.20;99.90;;;;;;5098180;28;20457;-67
2021/05/16 09:43:17;;;;;;;2.10;1.83;;;14.50;99.90;;;;;;5098344;28;20507;-67
2021/05/16 09:45:52;;;;;;;2.17;1.70;;;14.70;99.90;;;;;;5097997;28;20502;-68
2021/05/16 09:48:41;;;;;;;1.77;1.60;;;14.90;99.90;;;;;;5098067;28;20891;-69
2021/05/16 09:51:18;;;;;;;1.97;1.40;;;15.20;99.90;;;;;;5098456;28;20766;-68
2021/05/16 09:53:58;;;;;;;2.47;1.97;;;15.60;99.90;;;;;;5098331;28;20465;-69
2021/05/16 09:56:27;;;;;;;2.83;1.73;;;15.70;99.90;;;;;;5098058;28;20452;-69
2021/05/16 09:58:57;;;;;;;2.27;1.50;;;15.90;99.90;;;;;;5097641;28;20926;-69
2021/05/16 10:01:26;;;;;;;2.23;1.30;;;16.00;99.90;;;;;;5097836;28;20781;-69
2021/05/16 10:03:52;;;;;;;4.60;1.50;;;16.10;99.90;;;;;;5097421;28;20464;-69
2021/05/16 10:06:21;;;;;;;2.80;1.77;;;16.20;99.90;;;;;;5097691;28;20457;-67
2021/05/16 10:08:48;;;;;;;1.90;1.67;;;16.40;99.90;;;;;;5097977;28;20453;-68
2021/05/16 10:11:16;;;;;;;1.60;1.50;;;16.60;99.90;;;;;;5098179;28;20457;-69
2021/05/16 10:13:52;;;;;;;1.80;1.30;;;16.60;99.90;;;;;;5097707;28;20481;-68
2021/05/16 10:16:20;;;;;;;2.97;1.50;;;16.70;99.90;;;;;;5097702;28;20441;-68
2021/05/16 10:18:49;;;;;;;3.40;1.43;;;16.70;99.90;;;;;;5097540;28;20453;-67
2021/05/16 10:21:15;;;;;;;3.60;1.53;;;16.70;99.90;;;;;;5097664;28;20463;-68
2021/05/16 10:23:43;;;;;;;3.70;1.60;;;16.80;99.90;;;;;;5097982;28;20495;-68
2021/05/16 10:26:21;;;;;;;1.90;1.60;;;17.00;99.90;;;;;;5097616;28;20465;-67
2021/05/16 10:28:59;;;;;;;1.53;1.43;;;17.10;99.90;;;;;;5098395;28;20452;-68
2021/05/16 10:32:06;;;;;;;3.27;1.87;;;17.20;99.90;;;;;;5097586;28;20916;-68
2021/05/16 10:34:42;;;;;;;2.10;1.40;;;17.20;99.90;;;;;;5097461;28;20461;-68
2021/05/16 10:37:36;;;;;;;1.67;1.30;;;17.00;99.90;;;;;;5097843;28;20791;-67
2021/05/16 10:40:05;;;;;;;3.40;1.20;;;16.80;99.90;;;;;;5097384;28;20453;-66
2021/05/16 10:42:34;;;;;;;2.00;1.20;;;16.60;99.90;;;;;;5097132;28;20552;-67
2021/05/16 10:45:04;;;;;;;3.37;1.63;;;16.60;99.90;;;;;;5097008;28;20453;-67
2021/05/16 10:47:57;;;;;;;1.27;1.10;;;16.50;99.90;;;;;;5096992;28;20457;-66
2021/05/16 10:51:01;;;;;;;2.20;1.50;;;16.50;99.90;;;;;;5096908;28;20446;-66
2021/05/16 10:53:37;;;;;;;2.53;1.27;;;16.70;99.90;;;;;;5096792;28;20437;-66
2021/05/16 10:56:22;;;;;;;4.37;1.50;;;16.90;99.90;;;;;;5096886;28;20452;-66
2021/05/16 10:58:57;;;;;;;2.60;1.47;;;17.20;99.90;;;;;;5096796;28;20434;-68
2021/05/16 11:01:35;;;;;;;2.90;1.53;;;17.40;99.90;;;;;;5096859;28;20448;-68
2021/05/16 11:04:02;;;;;;;3.03;1.50;;;17.60;99.90;;;;;;5096652;28;20891;-68
2021/05/16 11:07:02;;;;;;;4.67;1.87;;;17.50;99.90;;;;;;5096388;28;20449;-68
2021/05/16 11:09:38;;;;;;;2.47;1.17;;;17.40;99.90;;;;;;5096403;28;20789;-68
2021/05/16 11:12:06;;;;;;;2.10;1.30;;;17.50;99.90;;;;;;5096477;28;20433;-69
2021/05/16 11:14:38;;;;;;;2.57;1.50;;;17.60;99.90;;;;;;5096561;28;20488;-69
2021/05/16 11:17:07;;;;;;;5.33;1.43;;;17.90;99.90;;;;;;5096390;28;20449;-67
2021/05/16 11:19:34;;;;;;;7.13;1.23;;;18.50;99.90;;;;;;5096424;28;20465;-69
2021/05/16 11:22:12;;;;;;;3.13;1.20;;;18.90;99.90;;;;;;5096163;28;20537;-69
2021/05/16 11:24:41;;;;;;;4.23;1.83;;;19.10;99.90;;;;;;5095830;28;20441;-69
2021/05/16 11:27:18;;;;;;;3.33;1.43;;;19.10;99.90;;;;;;5095945;28;20537;-69
2021/05/16 11:29:45;;;;;;;1.93;1.27;;;19.30;99.90;;;;;;5096681;28;20535;-69
2021/05/16 11:32:11;;;;;;;1.87;1.33;;;19.60;99.90;;;;;;5098620;28;20492;-69
2021/05/16 11:34:37;;;;;;;2.50;1.40;;;20.20;99.90;;;;;;5097495;28;20507;-69
2021/05/16 11:37:17;;;;;;;3.07;1.23;;;20.80;99.90;;;;;;5097752;28;20458;-69
2021/05/16 11:39:44;;;;;;;2.23;1.23;;;21.50;99.90;;;;;;5095784;28;20464;-69
2021/05/16 11:42:11;;;;;;;2.37;1.33;;;22.00;99.90;;;;;;5095635;28;20526;-69
2021/05/16 11:44:38;;;;;;;2.57;1.40;;;22.70;99.90;;;;;;5095443;28;20453;-69
2021/05/16 11:47:04;;;;;;;3.50;1.07;;;23.10;99.90;;;;;;5095383;28;20453;-69
2021/05/16 11:49:31;;;;;;;1.83;1.00;;;23.30;99.90;;;;;;5095457;28;20544;-69
2021/05/16 11:51:58;;;;;;;2.93;1.20;;;23.20;99.90;;;;;;5095301;28;20464;-68
2021/05/16 11:54:27;;;;;;;1.90;0.97;;;23.00;99.90;;;;;;5095395;28;20477;-69
2021/05/16 11:56:53;;;;;;;2.47;1.10;;;22.90;99.90;;;;;;5095452;28;20457;-69
2021/05/16 11:59:27;;;;;;;2.30;1.10;;;23.10;99.90;;;;;;5095275;28;20525;-68
2021/05/16 12:02:02;;;;;;;4.90;1.30;;;23.30;99.90;;;;;;5095392;28;20442;-68
2021/05/16 12:04:38;;;;;;;1.80;1.30;;;23.30;99.90;;;;;;5095257;28;20487;-68
2021/05/16 12:07:04;;;;;;;2.77;1.57;;;22.80;99.90;;;;;;5095172;28;20781;-70
2021/05/16 12:09:40;;;;;;;2.80;1.30;;;21.80;99.90;;;;;;5095740;28;20889;-70
2021/05/16 12:12:17;;;;;;;2.47;0.90;;;20.70;99.90;;;;;;5095025;28;20812;-69
2021/05/16 12:14:44;;;;;;;4.30;1.00;;;19.60;99.90;;;;;;5094774;28;20566;-69
2021/05/16 12:17:13;;;;;;;1.93;1.03;;;19.20;99.90;;;;;;5095548;28;20457;-69
2021/05/16 12:19:40;;;;;;;3.20;0.97;;;19.20;99.90;;;;;;5095515;28;20449;-70
2021/05/16 12:22:10;;;;;;;1.50;0.90;;;19.20;99.90;;;;;;5094514;28;20457;-70
2021/05/16 12:24:42;;;;;;;3.27;1.00;;;19.30;99.90;;;;;;5095280;28;20495;-68
2021/05/16 12:27:10;;;;;;;1.60;1.20;;;19.10;99.90;;;;;;5095025;28;20506;-69
2021/05/16 12:29:39;;;;;;;2.63;1.20;;;18.70;99.90;;;;;;5095186;28;20782;-70
2021/05/16 12:32:06;;;;;;;1.80;0.97;;;18.80;99.90;;;;;;5094535;28;20485;-69
2021/05/16 12:34:33;;;;;;;1.73;0.80;;;19.40;99.90;;;;;;5095035;28;20763;-69
2021/05/16 12:37:02;;;;;;;1.97;1.00;;;20.10;99.90;;;;;;5096378;28;20464;-69
2021/05/16 12:39:40;;;;;;;2.20;1.20;;;20.80;99.90;;;;;;5100147;28;20485;-69
2021/05/16 12:42:28;;;;;;;2.53;1.20;;;21.40;99.90;;;;;;5099356;28;20499;-69
2021/05/16 12:44:55;;;;;;;1.90;0.90;;;21.70;99.90;;;;;;5099541;28;20472;-70
2021/05/16 12:47:23;;;;;;;2.30;1.07;;;21.40;99.90;;;;;;5099196;28;20544;-71
2021/05/16 12:50:01;;;;;;;1.97;0.90;;;20.80;99.90;;;;;;5099329;28;20453;-68
2021/05/16 12:52:28;;;;;;;3.37;0.90;;;20.00;99.90;;;;;;5099256;28;20433;-69
2021/05/16 12:54:54;;;;;;;2.43;1.07;;;19.20;99.90;;;;;;5098846;28;20568;-69